Time,TemperatureF,DewpointF,PressureIn,WindDirection,WindDirectionDegrees,WindSpeedMPH,WindSpeedGustMPH,Humidity,HourlyPrecipIn,Conditions,Clouds,dailyrainin,SoftwareType,DateUTC
2013-11-21 00:09:00,54.2,50.0,30.04,SSE,147,0.0,0.0,86,0.00,,,0.00,weatherlink.com 1.10,2013-11-21 06:09:00,
2013-11-21 00:24:00,54.9,51.0,30.02,SSE,148,0.0,0.0,87,0.00,,,0.00,weatherlink.com 1.10,2013-11-21 06:24:00,
2013-11-21 00:39:00,55.4,51.0,30.02,SSE,153,0.0,2.0,86,0.00,,,0.00,weatherlink.com 1.10,2013-11-21 06:39:00,
2013-11-21 00:54:00,55.9,51.0,30.02,SSE,153,0.0,1.0,84,0.00,,,0.00,weatherlink.com 1.10,2013-11-21 06:54:00,
2013-11-21 01:09:00,56.5,51.0,30.02,SSE,154,0.0,1.0,82,0.00,,,0.00,weatherlink.com 1.10,2013-11-21 07:09:00,
2013-11-21 01:24:00,57.3,52.0,30.02,SSE,154,0.0,5.0,82,0.00,,,0.00,weatherlink.com 1.10,2013-11-21 07:24:00,
2013-11-21 01:39:00,58.3,53.0,30.02,SSE,147,0.0,2.0,81,0.00,,,0.00,weatherlink.com 1.10,2013-11-21 07:39:00,
2013-11-21 01:54:00,58.4,53.0,30.02,SSE,147,0.0,1.0,82,0.00,,,0.00,weatherlink.com 1.10,2013-11-21 07:54:00,
2013-11-21 02:09:00,58.6,54.0,30.03,SSE,147,0.0,0.0,83,0.00,,,0.00,weatherlink.com 1.10,2013-11-21 08:09:00,
2013-11-21 02:24:00,59.0,54.0,30.03,SE,145,0.0,2.0,82,0.00,,,0.00,weatherlink.com 1.10,2013-11-21 08:24:00,
2013-11-21 02:39:00,59.4,54.0,30.03,SE,145,0.0,0.0,83,0.00,,,0.00,weatherlink.com 1.10,2013-11-21 08:39:00,
2013-11-21 02:54:00,59.8,55.0,30.04,SSE,152,0.0,5.0,83,0.00,,,0.00,weatherlink.com 1.10,2013-11-21 08:54:00,
2013-11-21 03:09:00,60.3,56.0,30.03,SSE,162,0.0,4.0,85,0.00,,,0.00,weatherlink.com 1.10,2013-11-21 09:09:00,
2013-11-21 03:24:00,60.8,56.0,30.03,ENE,72,0.0,2.0,84,0.00,,,0.00,weatherlink.com 1.10,2013-11-21 09:24:00,
2013-11-21 03:39:00,61.2,56.0,30.03,South,170,0.0,1.0,84,0.00,,,0.00,weatherlink.com 1.10,2013-11-21 09:39:00,
2013-11-21 03:54:00,61.4,57.0,30.03,SSE,168,0.0,1.0,84,0.00,,,0.00,weatherlink.com 1.10,2013-11-21 09:54:00,
2013-11-21 04:09:00,61.5,57.0,30.03,SSE,168,0.0,0.0,85,0.00,,,0.00,weatherlink.com 1.10,2013-11-21 10:09:00,
2013-11-21 04:24:00,61.4,57.0,30.03,SSE,168,0.0,0.0,85,0.00,,,0.00,weatherlink.com 1.10,2013-11-21 10:24:00,
2013-11-21 04:39:00,61.6,57.0,30.04,SSE,160,0.0,1.0,86,0.00,,,0.00,weatherlink.com 1.10,2013-11-21 10:39:00,
2013-11-21 04:54:00,61.6,57.0,30.04,SSE,159,0.0,1.0,86,0.00,,,0.00,weatherlink.com 1.10,2013-11-21 10:54:00,
2013-11-21 05:09:00,61.6,58.0,30.03,ESE,103,0.0,2.0,87,0.00,,,0.00,weatherlink.com 1.10,2013-11-21 11:09:00,
2013-11-21 05:24:00,61.9,58.0,30.03,ESE,113,0.0,2.0,87,0.00,,,0.00,weatherlink.com 1.10,2013-11-21 11:24:00,
2013-11-21 05:39:00,62.1,58.0,30.03,SE,134,0.0,2.0,87,0.00,,,0.00,weatherlink.com 1.10,2013-11-21 11:39:00,
2013-11-21 05:54:00,61.8,58.0,30.04,SE,127,0.0,4.0,87,0.00,,,0.00,weatherlink.com 1.10,2013-11-21 11:54:00,
2013-11-21 06:09:00,61.4,58.0,30.04,SE,127,0.0,0.0,88,0.00,,,0.00,weatherlink.com 1.10,2013-11-21 12:09:00,
2013-11-21 06:24:00,61.7,59.0,30.05,SE,127,0.0,1.0,89,0.00,,,0.00,weatherlink.com 1.10,2013-11-21 12:24:00,
2013-11-21 06:39:00,62.0,59.0,30.05,WSW,255,0.0,1.0,89,0.00,,,0.00,weatherlink.com 1.10,2013-11-21 12:39:00,
2013-11-21 06:54:00,62.0,59.0,30.05,WSW,241,0.0,1.0,89,0.00,,,0.00,weatherlink.com 1.10,2013-11-21 12:54:00,
2013-11-21 07:09:00,62.0,59.0,30.06,WSW,241,0.0,0.0,89,0.00,,,0.00,weatherlink.com 1.10,2013-11-21 13:09:00,
2013-11-21 07:24:00,62.2,59.0,30.06,WSW,241,0.0,0.0,89,0.00,,,0.00,weatherlink.com 1.10,2013-11-21 13:24:00,
2013-11-21 07:39:00,62.4,59.0,30.07,SSW,212,0.0,1.0,89,0.00,,,0.00,weatherlink.com 1.10,2013-11-21 13:39:00,
2013-11-21 07:54:00,63.0,60.0,30.07,SSW,209,0.0,2.0,89,0.00,,,0.00,weatherlink.com 1.10,2013-11-21 13:54:00,
2013-11-21 08:09:00,63.7,61.0,30.07,SE,145,0.0,3.0,89,0.00,,,0.00,weatherlink.com 1.10,2013-11-21 14:09:00,
2013-11-21 08:25:00,64.5,61.0,30.07,SSE,153,0.0,3.0,89,0.00,,,0.00,weatherlink.com 1.10,2013-11-21 14:25:00,
2013-11-21 08:40:00,64.9,61.0,30.07,SSE,165,0.0,1.0,88,0.00,,,0.00,weatherlink.com 1.10,2013-11-21 14:40:00,
2013-11-21 08:55:00,65.1,62.0,30.07,SSE,148,0.0,2.0,88,0.00,,,0.00,weatherlink.com 1.10,2013-11-21 14:55:00,
2013-11-21 09:10:00,65.6,62.0,30.07,SE,136,0.0,4.0,88,0.00,,,0.00,weatherlink.com 1.10,2013-11-21 15:10:00,
2013-11-21 09:25:00,66.4,63.0,30.08,SE,136,0.0,1.0,88,0.00,,,0.00,weatherlink.com 1.10,2013-11-21 15:25:00,
2013-11-21 09:40:00,67.1,63.0,30.08,SW,218,0.0,3.0,87,0.00,,,0.00,weatherlink.com 1.10,2013-11-21 15:40:00,
2013-11-21 09:55:00,68.0,64.0,30.09,South,191,0.0,1.0,86,0.00,,,0.00,weatherlink.com 1.10,2013-11-21 15:55:00,
2013-11-21 10:10:00,68.9,64.0,30.09,SE,128,0.0,6.0,84,0.00,,,0.00,weatherlink.com 1.10,2013-11-21 16:10:00,
2013-11-21 10:25:00,69.0,64.0,30.09,SW,219,0.0,9.0,83,0.00,,,0.00,weatherlink.com 1.10,2013-11-21 16:25:00,
2013-11-21 10:40:00,70.5,65.0,30.09,South,170,0.0,4.0,82,0.00,,,0.00,weatherlink.com 1.10,2013-11-21 16:40:00,
2013-11-21 10:55:00,71.3,65.0,30.09,SSE,151,4.0,7.0,81,0.00,,,0.00,weatherlink.com 1.10,2013-11-21 16:55:00,
2013-11-21 11:10:00,72.5,66.0,30.09,East,100,0.0,6.0,80,0.00,,,0.00,weatherlink.com 1.10,2013-11-21 17:10:00,
2013-11-21 11:25:00,72.7,66.0,30.08,West,262,0.0,8.0,78,0.00,,,0.00,weatherlink.com 1.10,2013-11-21 17:25:00,
2013-11-21 11:40:00,73.1,66.0,30.08,WSW,255,2.0,4.0,77,0.00,,,0.00,weatherlink.com 1.10,2013-11-21 17:40:00,
2013-11-21 11:55:00,71.9,65.0,30.08,East,93,0.0,5.0,80,0.00,,,0.00,weatherlink.com 1.10,2013-11-21 17:55:00,
2013-11-21 12:10:00,71.4,65.0,30.07,SSE,153,0.0,1.0,80,0.00,,,0.00,weatherlink.com 1.10,2013-11-21 18:10:00,
2013-11-21 12:25:00,71.3,65.0,30.07,SE,146,0.0,0.0,81,0.00,,,0.00,weatherlink.com 1.10,2013-11-21 18:25:00,
2013-11-21 12:40:00,71.5,65.0,30.06,SSE,147,0.0,0.0,81,0.00,,,0.00,weatherlink.com 1.10,2013-11-21 18:40:00,
2013-11-21 12:55:00,72.0,66.0,30.06,WSW,242,0.0,1.0,82,0.00,,,0.00,weatherlink.com 1.10,2013-11-21 18:55:00,
2013-11-21 13:10:00,72.1,66.0,30.05,SE,132,0.0,1.0,81,0.00,,,0.00,weatherlink.com 1.10,2013-11-21 19:10:00,
2013-11-21 13:25:00,72.9,66.0,30.04,SE,137,0.0,1.0,80,0.00,,,0.00,weatherlink.com 1.10,2013-11-21 19:25:00,
2013-11-21 13:40:00,73.1,67.0,30.04,SSE,163,0.0,3.0,80,0.00,,,0.00,weatherlink.com 1.10,2013-11-21 19:40:00,
2013-11-21 13:55:00,72.9,67.0,30.04,SE,128,0.0,1.0,81,0.00,,,0.00,weatherlink.com 1.10,2013-11-21 19:55:00,
2013-11-21 14:10:00,72.6,67.0,30.04,ESE,122,0.0,3.0,82,0.00,,,0.00,weatherlink.com 1.10,2013-11-21 20:10:00,
2013-11-21 14:25:00,72.5,67.0,30.03,NNE,32,1.0,2.0,82,0.00,,,0.00,weatherlink.com 1.10,2013-11-21 20:25:00,
2013-11-21 14:40:00,72.7,67.0,30.02,SE,146,0.0,1.0,83,0.00,,,0.00,weatherlink.com 1.10,2013-11-21 20:40:00,
2013-11-21 14:55:00,73.1,67.0,30.03,South,177,0.0,6.0,82,0.00,,,0.00,weatherlink.com 1.10,2013-11-21 20:55:00,
2013-11-21 15:10:00,73.3,67.0,30.03,SSE,152,0.0,2.0,81,0.00,,,0.00,weatherlink.com 1.10,2013-11-21 21:10:00,
2013-11-21 15:25:00,73.2,67.0,30.03,SSE,148,0.0,1.0,82,0.00,,,0.00,weatherlink.com 1.10,2013-11-21 21:25:00,
2013-11-21 15:40:00,73.4,68.0,30.03,SSE,149,0.0,1.0,82,0.00,,,0.00,weatherlink.com 1.10,2013-11-21 21:40:00,
2013-11-21 15:55:00,73.4,68.0,30.04,SSE,152,0.0,1.0,82,0.00,,,0.00,weatherlink.com 1.10,2013-11-21 21:55:00,
2013-11-21 16:10:00,72.8,67.0,30.04,SSE,151,0.0,0.0,83,0.00,,,0.00,weatherlink.com 1.10,2013-11-21 22:10:00,
2013-11-21 16:25:00,72.3,67.0,30.05,SSE,152,0.0,0.0,84,0.00,,,0.00,weatherlink.com 1.10,2013-11-21 22:25:00,
2013-11-21 16:40:00,71.9,67.0,30.05,SSE,151,0.0,0.0,85,0.00,,,0.00,weatherlink.com 1.10,2013-11-21 22:40:00,
2013-11-21 16:55:00,71.6,67.0,30.05,SSE,152,0.0,0.0,85,0.00,,,0.00,weatherlink.com 1.10,2013-11-21 22:55:00,
2013-11-21 17:10:00,71.2,67.0,30.05,SSE,152,0.0,0.0,86,0.00,,,0.00,weatherlink.com 1.10,2013-11-21 23:10:00,
2013-11-21 17:25:00,70.7,67.0,30.05,SSE,152,0.0,0.0,87,0.00,,,0.00,weatherlink.com 1.10,2013-11-21 23:25:00,
2013-11-21 17:40:00,70.4,67.0,30.05,SSE,152,0.0,0.0,88,0.00,,,0.00,weatherlink.com 1.10,2013-11-21 23:40:00,
2013-11-21 17:55:00,70.2,67.0,30.06,SSE,151,0.0,0.0,88,0.00,,,0.00,weatherlink.com 1.10,2013-11-21 23:55:00,
2013-11-21 18:10:00,70.0,67.0,30.06,SSE,151,0.0,0.0,89,0.00,,,0.00,weatherlink.com 1.10,2013-11-22 00:10:00,
2013-11-21 18:25:00,69.8,67.0,30.07,SSE,151,0.0,0.0,89,0.00,,,0.00,weatherlink.com 1.10,2013-11-22 00:25:00,
2013-11-21 18:40:00,69.8,67.0,30.07,SSE,152,0.0,0.0,89,0.00,,,0.00,weatherlink.com 1.10,2013-11-22 00:40:00,
2013-11-21 18:55:00,69.7,66.0,30.07,SSE,152,0.0,1.0,89,0.00,,,0.00,weatherlink.com 1.10,2013-11-22 00:55:00,
2013-11-21 19:10:00,70.2,67.0,30.08,SSE,163,0.0,3.0,89,0.00,,,0.00,weatherlink.com 1.10,2013-11-22 01:10:00,
2013-11-21 19:25:00,70.3,67.0,30.07,East,95,0.0,1.0,89,0.00,,,0.00,weatherlink.com 1.10,2013-11-22 01:25:00,
2013-11-21 19:55:00,70.5,67.0,30.07,SSE,157,0.0,1.0,89,0.00,,,0.00,weatherlink.com 1.10,2013-11-22 01:55:00,
2013-11-21 20:10:00,70.8,68.0,30.07,South,172,0.0,3.0,89,0.00,,,0.00,weatherlink.com 1.10,2013-11-22 02:10:00,
2013-11-21 20:26:00,70.9,68.0,30.07,South,178,0.0,3.0,89,0.00,,,0.00,weatherlink.com 1.10,2013-11-22 02:26:00,
2013-11-21 20:40:00,70.8,68.0,30.08,South,172,0.0,1.0,89,0.00,,,0.00,weatherlink.com 1.10,2013-11-22 02:40:00,
2013-11-21 20:55:00,70.6,67.0,30.07,South,172,0.0,2.0,89,0.00,,,0.00,weatherlink.com 1.10,2013-11-22 02:55:00,
2013-11-21 21:10:00,70.5,68.0,30.09,South,178,0.0,0.0,90,0.00,,,0.00,weatherlink.com 1.10,2013-11-22 03:10:00,
2013-11-21 21:26:00,70.4,67.0,30.09,South,178,0.0,0.0,90,0.00,,,0.00,weatherlink.com 1.10,2013-11-22 03:26:00,
2013-11-21 21:41:00,70.0,67.0,30.10,South,178,0.0,0.0,90,0.00,,,0.00,weatherlink.com 1.10,2013-11-22 03:41:00,
2013-11-21 21:56:00,70.0,67.0,30.11,South,178,0.0,0.0,90,0.00,,,0.00,weatherlink.com 1.10,2013-11-22 03:56:00,
2013-11-21 22:11:00,70.1,67.0,30.11,South,178,0.0,0.0,90,0.00,,,0.00,weatherlink.com 1.10,2013-11-22 04:11:00,
2013-11-21 22:26:00,69.9,67.0,30.11,South,178,0.0,0.0,89,0.00,,,0.00,weatherlink.com 1.10,2013-11-22 04:26:00,
2013-11-21 22:41:00,69.8,67.0,30.11,South,178,0.0,0.0,89,0.00,,,0.00,weatherlink.com 1.10,2013-11-22 04:41:00,
2013-11-21 22:56:00,69.4,66.0,30.11,South,178,0.0,0.0,90,0.00,,,0.00,weatherlink.com 1.10,2013-11-22 04:56:00,
2013-11-21 23:11:00,69.2,66.0,30.11,South,178,0.0,0.0,89,0.00,,,0.00,weatherlink.com 1.10,2013-11-22 05:11:00,
2013-11-21 23:26:00,69.0,66.0,30.11,South,178,0.0,1.0,89,0.00,,,0.00,weatherlink.com 1.10,2013-11-22 05:26:00,
2013-11-21 23:41:00,68.8,66.0,30.09,South,178,0.0,0.0,89,0.00,,,0.00,weatherlink.com 1.10,2013-11-22 05:41:00,
2013-11-21 23:56:00,69.2,66.0,30.09,South,176,0.0,1.0,88,0.00,,,0.00,weatherlink.com 1.10,2013-11-22 05:56:00,